Time;durP1;ratioP1;P1;durP2;ratioP2;P2;SDS_P1;SDS_P2;PMS_P1;PMS_P2;Temp;Humidity;BMP_temperature;BMP_pressure;BME280_temperature;BME280_humidity;BME280_pressure;Samples;Min_cycle;Max_cycle;Signal;HPM_P1;HPM_P2
2021/10/21 00:00:34;;;;;;;14.87;8.13;;;;;;;11.27;72.75;98191.73;4174580;84;20984;-82
2021/10/21 00:06:37;;;;;;;12.98;8.63;;;;;;;11.19;73.02;98177.86;4175528;84;21036;-82
2021/10/21 00:12:39;;;;;;;17.37;8.25;;;;;;;11.07;73.43;98172.23;4025371;86;21113;-83
2021/10/21 00:18:41;;;;;;;11.75;8.18;;;;;;;11.01;73.62;98164.81;4020267;87;21068;-82
2021/10/21 00:24:42;;;;;;;11.33;7.08;;;;;;;10.80;74.05;98154.75;4051851;86;21121;-83
2021/10/21 00:30:43;;;;;;;28.20;12.55;;;;;;;10.87;74.93;98151.18;4183123;83;21090;-82
2021/10/21 00:36:45;;;;;;;22.32;10.10;;;;;;;10.51;74.66;98146.98;4168587;84;21504;-82
2021/10/21 00:42:46;;;;;;;20.15;11.00;;;;;;;10.26;75.08;98144.30;4172748;83;21146;-82
2021/10/21 00:48:47;;;;;;;19.82;10.95;;;;;;;10.15;76.74;98153.70;4171469;84;21645;-83
2021/10/21 00:54:49;;;;;;;18.23;10.43;;;;;;;10.11;76.34;98144.70;4173153;83;21518;-82
2021/10/21 01:00:53;;;;;;;15.32;9.83;;;;;;;10.04;77.79;98137.86;4171105;84;21050;-82
2021/10/21 01:06:56;;;;;;;15.10;9.35;;;;;;;10.04;77.27;98121.45;4166798;83;21074;-81
2021/10/21 01:12:57;;;;;;;13.90;8.68;;;;;;;10.04;77.36;98123.58;4174222;83;20999;-83
2021/10/21 01:18:59;;;;;;;14.07;8.63;;;;;;;10.00;77.10;98120.66;4172331;83;21559;-82
2021/10/21 01:25:00;;;;;;;16.85;10.00;;;;;;;9.73;77.14;98107.97;4167535;84;21012;-82
2021/10/21 01:31:02;;;;;;;16.42;9.75;;;;;;;9.56;77.85;98097.81;4171419;83;21162;-83
2021/10/21 01:37:03;;;;;;;15.30;10.25;;;;;;;9.40;78.16;98084.53;4163680;84;21126;-82
2021/10/21 01:43:04;;;;;;;12.43;7.15;;;;;;;9.33;78.31;98070.85;4170948;83;21059;-82
2021/10/21 01:49:06;;;;;;;16.80;8.50;;;;;;;9.32;78.74;98068.51;4170194;83;21031;-82
2021/10/21 01:55:08;;;;;;;10.68;7.78;;;;;;;9.29;78.93;98065.98;4164663;83;21743;-83
2021/10/21 02:01:10;;;;;;;17.35;8.60;;;;;;;9.32;79.01;98056.22;4173825;83;21519;-82
2021/10/21 02:07:11;;;;;;;15.65;8.78;;;;;;;9.25;79.06;98046.67;4169377;83;21570;-82
2021/10/21 02:13:13;;;;;;;11.55;7.65;;;;;;;9.13;78.98;98025.97;4172203;83;21054;-82
2021/10/21 02:19:14;;;;;;;15.13;9.48;;;;;;;8.95;79.89;98031.20;4173738;83;21055;-82
2021/10/21 02:25:16;;;;;;;18.37;9.68;;;;;;;8.84;79.20;98038.59;4172939;84;21059;-81
2021/10/21 02:31:17;;;;;;;17.30;9.33;;;;;;;8.63;79.75;98041.27;4177774;83;21638;-82
2021/10/21 02:37:18;;;;;;;15.70;10.15;;;;;;;8.46;81.74;98021.50;4215907;83;21038;-82
2021/10/21 02:43:19;;;;;;;19.85;9.98;;;;;;;8.45;81.11;98019.37;4218332;83;21546;-82
2021/10/21 02:49:21;;;;;;;12.50;9.43;;;;;;;8.48;81.03;98009.06;4215894;83;21069;-82
2021/10/21 02:55:22;;;;;;;15.95;9.65;;;;;;;8.34;81.00;98005.48;4215732;83;21077;-82
2021/10/21 03:01:23;;;;;;;13.60;8.83;;;;;;;8.35;81.36;98001.61;4210684;83;21066;-82
2021/10/21 03:07:24;;;;;;;14.55;9.70;;;;;;;8.14;81.72;97980.46;4220786;83;21050;-82
2021/10/21 03:13:26;;;;;;;11.65;8.05;;;;;;;8.08;82.15;97970.30;4215261;83;21231;-81
2021/10/21 03:19:27;;;;;;;12.73;8.88;;;;;;;8.08;81.60;97960.16;4222569;83;21141;-81
2021/10/21 03:25:29;;;;;;;20.82;10.63;;;;;;;7.91;82.20;97951.32;4220879;83;21645;-81
2021/10/21 03:31:31;;;;;;;15.18;10.60;;;;;;;7.83;82.37;97950.52;4209178;83;20995;-82
2021/10/21 03:37:32;;;;;;;18.45;10.68;;;;;;;7.79;82.79;97951.09;4178327;84;21151;-81
2021/10/21 03:43:33;;;;;;;16.27;10.95;;;;;;;7.78;83.03;97949.51;4172328;84;21027;-81
2021/10/21 03:49:35;;;;;;;17.73;12.00;;;;;;;7.87;83.17;97946.45;4174050;84;21059;-81
2021/10/21 03:55:39;;;;;;;17.50;10.78;;;;;;;7.91;83.39;97938.48;4176487;84;21031;-81
2021/10/21 04:01:40;;;;;;;18.92;10.03;;;;;;;7.87;82.90;97934.19;4171399;84;21043;-81
2021/10/21 04:07:41;;;;;;;22.13;12.47;;;;;;;7.79;83.01;97931.23;4172812;84;20988;-81
2021/10/21 04:13:43;;;;;;;17.42;11.68;;;;;;;7.70;83.10;97919.33;4179727;84;21110;-81
2021/10/21 04:19:45;;;;;;;17.27;10.78;;;;;;;7.54;83.64;97905.23;4172039;83;21595;-82
2021/10/21 04:25:46;;;;;;;16.55;9.93;;;;;;;7.57;83.76;97893.57;4171687;84;21036;-81
2021/10/21 04:31:48;;;;;;;20.17;10.68;;;;;;;7.56;83.74;97894.71;4170179;84;21130;-81
2021/10/21 04:37:49;;;;;;;24.15;12.53;;;;;;;7.60;84.09;97877.83;4173751;84;21063;-81
2021/10/21 04:43:50;;;;;;;20.17;12.18;;;;;;;7.50;84.77;97864.16;4171208;84;21674;-81
2021/10/21 04:49:51;;;;;;;19.82;12.15;;;;;;;7.50;84.79;97849.95;4169602;84;21039;-81
2021/10/21 04:55:53;;;;;;;16.20;10.03;;;;;;;7.50;84.90;97843.74;4172863;83;21522;-81
2021/10/21 05:01:54;;;;;;;17.80;11.12;;;;;;;7.62;84.82;97834.66;4170920;84;21031;-81
2021/10/21 05:07:55;;;;;;;25.37;13.10;;;;;;;7.42;84.79;97822.48;4171722;84;21776;-82
2021/10/21 05:13:56;;;;;;;27.17;11.70;;;;;;;7.44;86.86;97794.88;4175557;84;21575;-82
2021/10/21 05:19:58;;;;;;;27.13;15.32;;;;;;;7.24;86.68;97797.70;4173422;83;21942;-81
2021/10/21 05:25:59;;;;;;;34.23;16.37;;;;;;;7.23;86.44;97794.22;4168592;83;21578;-81
2021/10/21 05:32:06;;;;;;;22.32;12.40;;;;;;;7.23;86.25;97776.53;4175751;84;20991;-81
2021/10/21 05:38:05;;;;;;;20.68;11.28;;;;;;;7.37;86.25;97777.95;4164632;84;21050;-81
2021/10/21 05:44:07;;;;;;;19.52;11.20;;;;;;;7.36;86.07;97768.20;4164102;84;21474;-81
2021/10/21 05:50:10;;;;;;;20.10;10.00;;;;;;;7.29;86.14;97754.58;4166527;84;21127;-81
2021/10/21 05:56:12;;;;;;;14.18;8.80;;;;;;;7.30;86.21;97738.44;4162770;84;21470;-81
2021/10/21 06:02:13;;;;;;;21.90;9.60;;;;;;;7.26;86.57;97748.55;4088400;85;21100;-81
2021/10/21 06:08:14;;;;;;;17.92;9.58;;;;;;;7.42;86.81;97748.21;4158775;84;21554;-81
2021/10/21 06:14:15;;;;;;;20.23;9.60;;;;;;;7.60;86.96;97723.95;4083608;85;21110;-81
2021/10/21 06:20:17;;;;;;;14.87;10.45;;;;;;;7.77;86.90;97715.61;4007151;87;21008;-80
2021/10/21 06:26:19;;;;;;;22.87;14.40;;;;;;;7.90;86.92;97716.80;4163540;84;21002;-81
2021/10/21 06:32:22;;;;;;;23.50;12.10;;;;;;;8.03;87.34;97707.66;4083246;85;21070;-82
2021/10/21 06:38:23;;;;;;;20.17;11.85;;;;;;;8.20;87.23;97683.72;4161248;84;21124;-81
2021/10/21 06:44:25;;;;;;;36.95;16.02;;;;;;;8.39;87.66;97679.25;4163672;84;21046;-81
2021/10/21 06:50:26;;;;;;;43.73;16.77;;;;;;;8.49;87.64;97687.41;4165930;84;21025;-81
2021/10/21 06:56:27;;;;;;;29.70;15.95;;;;;;;8.79;87.56;97677.41;4162429;84;21033;-81
2021/10/21 07:02:29;;;;;;;31.62;15.35;;;;;;;9.07;87.63;97671.84;4163863;84;21065;-81
2021/10/21 07:08:30;;;;;;;23.83;12.13;;;;;;;9.51;87.83;97665.98;4087185;85;21106;-81
2021/10/21 07:14:31;;;;;;;25.20;13.00;;;;;;;10.04;87.43;97655.28;4163197;84;21068;-82
2021/10/21 07:20:32;;;;;;;28.20;12.73;;;;;;;10.62;87.07;97622.30;4086003;85;21059;-82
2021/10/21 07:26:34;;;;;;;27.00;12.05;;;;;;;11.26;86.04;97577.87;4159795;84;21526;-82
2021/10/21 07:32:36;;;;;;;21.02;12.25;;;;;;;12.24;85.38;97595.54;4079796;85;21066;-82
2021/10/21 07:38:38;;;;;;;27.82;12.68;;;;;;;13.05;84.84;97601.44;4161516;84;21584;-81
2021/10/21 07:44:41;;;;;;;26.73;11.83;;;;;;;13.50;84.05;97614.81;4166475;84;21510;-82
2021/10/21 07:50:45;;;;;;;28.32;13.80;;;;;;;13.90;84.12;97612.88;4165085;84;21601;-81
2021/10/21 07:56:46;;;;;;;31.00;13.72;;;;;;;14.36;83.29;97627.50;4082116;85;21566;-82
2021/10/21 08:02:47;;;;;;;24.18;13.55;;;;;;;14.62;83.31;97621.69;4163357;84;21065;-82
2021/10/21 08:08:48;;;;;;;26.33;13.70;;;;;;;15.13;82.12;97606.86;4087314;85;21048;-83
2021/10/21 08:14:50;;;;;;;23.52;13.40;;;;;;;16.05;81.48;97587.50;4161156;84;21450;-83
2021/10/21 08:20:51;;;;;;;21.25;12.10;;;;;;;16.72;75.14;97565.28;4073508;85;21120;-83
2021/10/21 08:26:54;;;;;;;20.88;11.20;;;;;;;17.51;74.12;97561.31;4015561;87;21585;-83
2021/10/21 08:32:57;;;;;;;14.78;8.58;;;;;;;18.25;75.23;97574.30;4160939;84;21068;-83
2021/10/21 08:38:59;;;;;;;10.13;6.72;;;;;;;19.30;71.79;97573.69;4125834;84;21029;-82
2021/10/21 08:45:01;;;;;;;9.78;6.72;;;;;;;20.14;72.53;97598.20;4219755;83;21716;-83
2021/10/21 08:51:05;;;;;;;15.05;8.00;;;;;;;21.11;71.39;97619.31;4213408;83;21069;-83
2021/10/21 08:57:12;;;;;;;19.32;9.23;;;;;;;22.02;69.88;97624.70;4217165;83;21058;-84
2021/10/21 09:03:25;;;;;;;17.27;9.10;;;;;;;22.39;67.85;97625.73;4213976;83;20979;-84
2021/10/21 09:09:25;;;;;;;13.05;7.15;;;;;;;22.92;65.79;97642.31;4187093;83;21039;-83
2021/10/21 09:15:28;;;;;;;15.75;6.95;;;;;;;23.30;65.06;97657.23;4215655;83;21050;-83
2021/10/21 09:21:37;;;;;;;9.05;6.80;;;;;;;23.81;64.05;97674.75;4214005;83;21022;-85
2021/10/21 09:27:45;;;;;;;9.38;5.97;;;;;;;24.03;61.92;97693.77;4212519;83;21061;-83
2021/10/21 09:33:49;;;;;;;7.45;5.80;;;;;;;24.22;60.10;97695.71;4210776;83;21695;-81
2021/10/21 09:39:55;;;;;;;10.85;6.80;;;;;;;24.32;58.79;97683.05;4217785;83;21034;-84
2021/10/21 09:45:58;;;;;;;9.67;6.63;;;;;;;24.12;57.69;97689.38;4214997;83;21047;-82
2021/10/21 09:52:04;;;;;;;7.75;6.37;;;;;;;23.29;56.57;97669.02;4211062;83;21046;-82
2021/10/21 09:58:11;;;;;;;10.78;5.72;;;;;;;23.26;55.57;97674.19;4212081;83;21065;-82
2021/10/21 10:04:14;;;;;;;6.30;4.72;;;;;;;22.79;55.44;97689.94;4212046;83;21034;-82
2021/10/21 10:10:15;;;;;;;11.65;5.95;;;;;;;22.23;55.21;97688.36;4217702;83;21705;-83
2021/10/21 10:16:17;;;;;;;6.67;5.12;;;;;;;21.49;54.27;97701.36;4217609;83;21054;-83
2021/10/21 10:22:30;;;;;;;9.80;4.95;;;;;;;20.66;54.44;97719.12;4216559;83;20999;-82
2021/10/21 10:28:52;;;;;;;12.93;6.67;;;;;;;20.17;54.89;97733.39;4210737;83;21368;-83
2021/10/21 10:34:54;;;;;;;18.10;8.30;;;;;;;19.74;55.10;97729.64;4205057;83;21039;-82
2021/10/21 10:40:57;;;;;;;13.30;8.40;;;;;;;19.39;55.20;97738.15;4168443;84;21019;-81
2021/10/21 10:46:59;;;;;;;7.97;5.62;;;;;;;19.05;55.84;97725.94;4175402;84;20988;-82
2021/10/21 10:53:07;;;;;;;15.00;6.08;;;;;;;18.80;56.11;97750.39;4166920;84;21026;-82
2021/10/21 10:59:23;;;;;;;11.22;5.60;;;;;;;18.83;56.05;97761.34;4168781;84;21058;-81
2021/10/21 11:05:49;;;;;;;8.15;6.30;;;;;;;18.82;56.30;97753.48;4174078;84;21090;-83
2021/10/21 11:12:03;;;;;;;9.03;6.22;;;;;;;18.68;56.43;97776.38;4173279;84;21060;-82
2021/10/21 11:18:05;;;;;;;13.70;7.53;;;;;;;18.46;56.70;97795.72;4171401;82;21035;-81
2021/10/21 11:24:07;;;;;;;10.23;6.58;;;;;;;18.17;56.34;97822.92;4174328;84;21044;-82
2021/10/21 11:30:24;;;;;;;10.38;5.62;;;;;;;17.87;56.59;97811.22;4163736;84;21096;-82
2021/10/21 11:36:25;;;;;;;8.83;5.83;;;;;;;17.59;56.95;97795.01;4194447;83;21598;-83
2021/10/21 11:42:28;;;;;;;9.03;5.45;;;;;;;17.37;57.81;97798.33;4211584;83;21039;-82
2021/10/21 11:48:34;;;;;;;11.83;5.30;;;;;;;17.30;56.96;97781.21;4212285;83;21067;-82
2021/10/21 11:54:38;;;;;;;9.53;4.67;;;;;;;17.10;57.50;97772.59;4213937;83;21026;-83
2021/10/21 12:00:40;;;;;;;9.60;5.60;;;;;;;17.02;57.38;97745.64;4215999;83;21070;-83
2021/10/21 12:06:42;;;;;;;6.20;4.60;;;;;;;16.87;57.69;97746.73;4224200;83;21038;-82
2021/10/21 12:12:46;;;;;;;7.47;5.03;;;;;;;16.71;58.24;97735.06;4213833;83;21106;-82
2021/10/21 12:18:47;;;;;;;8.80;5.35;;;;;;;16.69;58.32;97725.05;4218758;83;21101;-83
2021/10/21 12:24:48;;;;;;;15.00;5.95;;;;;;;16.62;58.72;97721.13;4217724;83;21638;-83
2021/10/21 12:30:50;;;;;;;6.78;4.45;;;;;;;16.59;59.10;97729.71;4216327;83;21078;-84
2021/10/21 12:36:53;;;;;;;6.72;4.75;;;;;;;16.61;59.11;97725.12;4196325;83;21499;-82
2021/10/21 12:43:25;;;;;;;6.03;4.50;;;;;;;16.63;58.55;97719.30;4168061;84;21111;-84
2021/10/21 12:49:22;;;;;;;9.08;3.87;;;;;;;16.57;58.72;97727.99;4161342;84;21174;-83
2021/10/21 12:55:29;;;;;;;6.60;4.28;;;;;;;16.56;58.49;97734.75;4170652;84;20996;-83
2021/10/21 13:01:58;;;;;;;9.80;4.22;;;;;;;16.53;58.60;97733.47;4175868;84;21106;-82
2021/10/21 13:08:00;;;;;;;4.37;3.40;;;;;;;16.56;57.76;97722.91;4167002;83;21665;-83
2021/10/21 13:14:01;;;;;;;6.53;4.08;;;;;;;16.50;58.01;97731.00;4172615;84;21563;-82
2021/10/21 13:20:03;;;;;;;13.88;3.87;;;;;;;16.43;58.67;97751.91;4171683;83;21114;-84
2021/10/21 13:26:06;;;;;;;6.22;3.87;;;;;;;16.47;58.41;97765.03;4172059;83;20991;-83
2021/10/21 13:32:08;;;;;;;7.17;3.83;;;;;;;16.46;58.59;97773.14;4169868;84;21106;-83
2021/10/21 13:38:11;;;;;;;6.25;3.83;;;;;;;16.49;58.80;97764.59;4169080;84;21002;-83
2021/10/21 13:44:12;;;;;;;5.97;3.20;;;;;;;16.37;58.84;97779.12;4161449;84;21081;-85
2021/10/21 13:50:15;;;;;;;6.08;3.60;;;;;;;16.37;58.31;97776.37;4163015;84;21069;-82
2021/10/21 13:56:17;;;;;;;4.28;3.27;;;;;;;16.33;58.62;97774.34;4163628;84;21078;-83
2021/10/21 14:02:20;;;;;;;5.92;3.75;;;;;;;16.29;58.71;97777.20;4163946;84;21112;-83
2021/10/21 14:08:21;;;;;;;5.42;3.87;;;;;;;16.14;59.29;97798.78;4166950;84;21061;-82
2021/10/21 14:14:22;;;;;;;13.03;3.65;;;;;;;16.17;58.87;97795.14;4165750;84;21046;-82
2021/10/21 14:20:24;;;;;;;5.22;3.17;;;;;;;16.16;58.89;97779.80;4161080;84;21056;-82
2021/10/21 14:26:25;;;;;;;10.82;3.05;;;;;;;16.15;58.58;97787.89;4084870;85;21425;-83
2021/10/21 14:32:27;;;;;;;4.65;3.22;;;;;;;16.12;58.52;97788.18;4135197;85;21158;-82
2021/10/21 14:38:28;;;;;;;7.62;2.98;;;;;;;16.07;58.97;97797.00;4145050;84;21593;-83
2021/10/21 14:44:29;;;;;;;7.65;3.35;;;;;;;16.14;58.75;97818.11;4214429;83;21617;-83
2021/10/21 14:50:30;;;;;;;7.03;3.30;;;;;;;16.17;58.62;97819.98;4211352;83;21082;-84
2021/10/21 14:56:33;;;;;;;7.08;3.08;;;;;;;16.14;58.43;97831.91;4216000;83;20983;-82
2021/10/21 15:02:36;;;;;;;12.88;3.02;;;;;;;16.17;57.79;97828.27;4217574;83;21027;-82
2021/10/21 15:09:05;;;;;;;7.80;2.52;;;;;;;16.10;56.15;97846.44;4216906;83;21062;-84
2021/10/21 15:15:30;;;;;;;;;;;;;;;;;;;;;
2021/10/21 15:27:29;;;;;;;11.57;3.05;;;;;;;15.92;54.99;97875.13;4214383;83;21023;-82
2021/10/21 15:33:30;;;;;;;16.55;2.98;;;;;;;15.76;55.20;97861.38;4217870;83;21117;-83
2021/10/21 15:39:42;;;;;;;11.08;3.00;;;;;;;15.62;55.36;97891.52;4214559;83;21038;-83
2021/10/21 15:45:57;;;;;;;5.70;2.77;;;;;;;15.51;54.95;97900.08;4211675;83;21077;-82
2021/10/21 16:17:17;;;;;;;5.92;2.37;;;;;;;15.18;54.94;97961.92;4208450;83;21053;-84
2021/10/21 16:23:31;;;;;;;8.23;2.52;;;;;;;15.18;54.80;97972.16;4213198;83;21562;-83
2021/10/21 16:29:21;;;;;;;6.72;2.77;;;;;;;15.17;54.31;97972.00;4213405;83;21019;-82
2021/10/21 16:35:23;;;;;;;18.00;3.27;;;;;;;15.13;54.97;97989.20;4218373;83;20983;-83
2021/10/21 16:41:24;;;;;;;10.43;2.80;;;;;;;15.05;55.27;97993.36;4156261;84;21536;-82
2021/10/21 16:47:26;;;;;;;10.30;2.95;;;;;;;15.01;55.09;97992.05;4162721;84;21432;-83
2021/10/21 16:53:27;;;;;;;5.65;2.67;;;;;;;15.03;55.07;98016.42;4164322;84;21076;-83
2021/10/21 16:59:31;;;;;;;12.43;3.65;;;;;;;15.07;54.86;98034.44;4162605;84;20993;-82
2021/10/21 17:05:32;;;;;;;10.95;3.65;;;;;;;15.09;55.05;98032.63;4160971;84;21074;-83
2021/10/21 17:11:33;;;;;;;8.93;3.15;;;;;;;15.06;55.27;98036.23;4164852;84;21101;-82
2021/10/21 17:17:34;;;;;;;9.95;3.05;;;;;;;15.02;54.94;98043.20;4042162;84;10000579;-82
2021/10/21 17:23:38;;;;;;;7.42;3.37;;;;;;;14.93;54.70;98064.27;4162942;84;21056;-83
2021/10/21 17:29:40;;;;;;;10.72;3.02;;;;;;;14.93;54.68;98065.64;4164909;84;21065;-83
2021/10/21 17:35:41;;;;;;;9.63;4.00;;;;;;;14.90;54.38;98071.42;4164463;84;21021;-83
2021/10/21 17:41:44;;;;;;;10.50;3.90;;;;;;;14.79;55.10;98081.09;4164321;84;21032;-82
2021/10/21 17:47:46;;;;;;;12.45;4.40;;;;;;;14.61;55.48;98094.45;4164683;84;21015;-83
2021/10/21 17:53:47;;;;;;;7.78;3.77;;;;;;;14.51;55.59;98111.94;4169665;83;21000;-83
2021/10/21 17:59:48;;;;;;;12.90;3.95;;;;;;;14.49;55.87;98109.61;4170638;84;20971;-84
2021/10/21 18:05:50;;;;;;;8.58;4.00;;;;;;;14.42;56.12;98115.26;4173712;84;21649;-82
2021/10/21 18:11:54;;;;;;;15.00;4.42;;;;;;;14.34;56.45;98119.34;4168897;84;21011;-83
2021/10/21 18:17:56;;;;;;;8.90;4.25;;;;;;;14.21;56.36;98116.97;4166642;83;21048;-83
2021/10/21 18:24:05;;;;;;;;;;;;;;;14.06;56.61;98125.30;4171691;83;21598;-84
2021/10/21 18:30:07;;;;;;;11.35;5.12;;;;;;;13.86;57.25;98136.80;4157925;83;20146;-83
2021/10/21 18:36:09;;;;;;;8.45;4.08;;;;;;;13.71;57.17;98140.97;4171830;84;21107;-83
2021/10/21 18:42:10;;;;;;;13.28;4.85;;;;;;;13.62;57.30;98126.38;4211013;83;21078;-83
2021/10/21 18:48:12;;;;;;;15.28;5.40;;;;;;;13.50;57.56;98133.80;4210665;83;21860;-84
2021/10/21 18:54:17;;;;;;;14.33;4.08;;;;;;;13.45;57.57;98150.76;4216975;83;21050;-83
2021/10/21 19:00:19;;;;;;;7.75;3.65;;;;;;;13.46;57.55;98143.30;4218585;83;22115;-82
2021/10/21 19:06:25;;;;;;;9.55;3.72;;;;;;;13.40;57.62;98157.33;4215750;83;21117;-83
2021/10/21 19:12:27;;;;;;;7.90;3.58;;;;;;;13.33;57.66;98172.52;4212432;81;21534;-83
2021/10/21 19:18:30;;;;;;;7.30;3.17;;;;;;;13.23;57.75;98176.20;4220508;83;21034;-83
2021/10/21 19:24:35;;;;;;;14.25;4.22;;;;;;;13.07;57.53;98169.92;4209575;83;21010;-83
2021/10/21 19:30:37;;;;;;;9.40;3.30;;;;;;;12.97;57.55;98179.02;4211858;83;21035;-84
2021/10/21 19:36:39;;;;;;;18.57;10.48;;;;;;;12.85;57.63;98193.88;4217212;83;21019;-83
2021/10/21 19:42:41;;;;;;;8.45;3.92;;;;;;;12.68;57.47;98216.98;4214041;83;21038;-83
2021/10/21 19:48:42;;;;;;;6.92;2.52;;;;;;;12.58;57.17;98232.98;4213749;83;21007;-83
2021/10/21 19:54:44;;;;;;;7.00;2.25;;;;;;;12.50;57.13;98225.20;4212841;83;21632;-82
2021/10/21 20:00:46;;;;;;;5.05;1.70;;;;;;;12.40;57.00;98224.72;4215876;83;21010;-82
2021/10/21 20:06:48;;;;;;;3.95;1.67;;;;;;;12.34;57.00;98244.18;4211882;83;21046;-83
2021/10/21 20:13:00;;;;;;;7.20;2.67;;;;;;;12.25;57.01;98246.58;4213366;83;20999;-82
2021/10/21 20:18:57;;;;;;;4.10;1.90;;;;;;;12.13;56.90;98240.21;4209805;83;21086;-83
2021/10/21 20:24:59;;;;;;;7.42;2.30;;;;;;;12.05;57.07;98249.08;4215978;83;21467;-83
2021/10/21 20:31:01;;;;;;;3.95;2.05;;;;;;;12.05;56.77;98251.04;4214628;83;21038;-83
2021/10/21 20:37:03;;;;;;;3.80;1.87;;;;;;;11.99;56.37;98253.44;4208486;83;21031;-82
2021/10/21 20:43:05;;;;;;;6.80;2.30;;;;;;;11.87;56.75;98249.77;4173521;84;21107;-83
2021/10/21 20:49:08;;;;;;;4.72;2.40;;;;;;;11.81;56.72;98262.34;4174156;84;21055;-82
2021/10/21 20:55:14;;;;;;;5.25;1.72;;;;;;;11.70;56.68;98264.36;4169147;84;21281;-83
2021/10/21 21:01:15;;;;;;;7.08;1.47;;;;;;;11.64;56.39;98260.48;4172478;83;21035;-82
2021/10/21 21:07:17;;;;;;;7.50;1.37;;;;;;;11.68;56.04;98257.73;4174814;84;21038;-83
2021/10/21 21:13:19;;;;;;;4.45;1.02;;;;;;;11.68;55.71;98258.48;4177329;84;21130;-82
2021/10/21 21:19:20;;;;;;;3.65;1.00;;;;;;;11.69;55.53;98262.02;4172478;84;21082;-83
2021/10/21 21:25:21;;;;;;;4.42;1.20;;;;;;;11.76;55.28;98260.63;4167699;84;21011;-82
2021/10/21 21:31:23;;;;;;;3.47;1.52;;;;;;;11.74;55.20;98254.76;4173682;84;21012;-82
2021/10/21 21:37:24;;;;;;;3.50;1.10;;;;;;;11.64;55.03;98257.73;4170649;84;21074;-82
2021/10/21 21:43:25;;;;;;;4.53;1.55;;;;;;;11.45;55.51;98257.42;4172894;84;21527;-81
2021/10/21 21:49:27;;;;;;;1.55;1.05;;;;;;;11.33;55.59;98260.00;4172300;84;21051;-83
2021/10/21 21:55:28;;;;;;;5.28;1.27;;;;;;;11.10;55.66;98258.32;4169905;84;21372;-81
2021/10/21 22:01:30;;;;;;;4.90;1.12;;;;;;;10.92;56.85;98260.30;4171394;84;21099;-82
2021/10/21 22:07:31;;;;;;;6.50;1.00;;;;;;;11.00;56.09;98251.69;4170878;83;21015;-82
2021/10/21 22:13:34;;;;;;;3.58;1.02;;;;;;;11.17;55.61;98250.64;4170171;84;21012;-82
2021/10/21 22:19:49;;;;;;;6.87;1.05;;;;;;;11.29;55.09;98265.30;4173658;83;21071;-82
2021/10/21 22:25:40;;;;;;;6.78;0.90;;;;;;;11.32;55.05;98276.26;4165405;84;21440;-82
2021/10/21 22:31:41;;;;;;;2.58;0.88;;;;;;;11.36;55.01;98281.70;4170238;84;21079;-82
2021/10/21 22:37:43;;;;;;;3.42;1.10;;;;;;;11.30;54.83;98281.92;4094739;85;21052;-82
2021/10/21 22:43:45;;;;;;;7.72;1.57;;;;;;;11.26;54.71;98280.56;4240292;82;21010;-83
2021/10/21 22:49:46;;;;;;;3.67;1.05;;;;;;;11.27;54.44;98262.96;4230233;82;21089;-82
2021/10/21 22:55:47;;;;;;;9.68;1.20;;;;;;;11.23;54.54;98262.17;4244912;82;21003;-83
2021/10/21 23:01:51;;;;;;;8.35;1.10;;;;;;;11.34;54.14;98258.81;4233301;82;20975;-83
2021/10/21 23:07:52;;;;;;;3.90;1.00;;;;;;;11.36;53.79;98266.63;4235672;82;21065;-82
2021/10/21 23:13:54;;;;;;;4.83;0.95;;;;;;;11.33;54.14;98277.02;4245819;82;21554;-83
2021/10/21 23:19:55;;;;;;;4.45;0.80;;;;;;;11.27;53.98;98273.13;4237659;82;21041;-82
2021/10/21 23:25:58;;;;;;;4.22;1.00;;;;;;;11.21;53.57;98290.58;4237623;82;21063;-83
2021/10/21 23:31:59;;;;;;;4.08;0.60;;;;;;;11.21;53.72;98286.47;4242630;82;21053;-82
2021/10/21 23:38:01;;;;;;;5.47;0.68;;;;;;;11.28;53.61;98270.57;4229891;82;21082;-82
2021/10/21 23:44:03;;;;;;;6.95;0.95;;;;;;;11.32;53.31;98266.67;4156162;84;21559;-82
2021/10/21 23:50:06;;;;;;;2.72;0.68;;;;;;;11.34;53.38;98267.03;4175279;84;21511;-81
2021/10/21 23:56:08;;;;;;;5.58;1.07;;;;;;;11.33;53.20;98279.18;4173219;84;21088;-83
